KSLC/SLC METAR and TAF weather

Enter ICAO airport designator
Station Type Date Time Source
KSLC METAR 2020/12/05 05:54 UTC NOAA

KSLC 050554Z 14004KT 10SM CLR M04/M08 A3046 RMK AO2 SLP334 T10391083 10000 21039 53005 $


Station Type Date Time Source
KSLC Decoded METAR 2020/12/05 05:54 UTC NOAA

SALT LAKE CITY INTERNATIONAL AIRPORT , UT, United States (KSLC) 40-47N 111-58W 1286M
Dec 05, 2020 - 12:54 AM EST / 2020.12.05 0554 UTC
Wind: from the SE (140 degrees) at 5 MPH (4 KT):0
Visibility: 10 mile(s):0
Sky conditions: clear
Temperature: 25.0 F (-3.9 C)
Windchill: 19 F (-7 C):1
Dew Point: 17.1 F (-8.3 C)
Relative Humidity: 71%
Pressure (altimeter): 30.46 in. Hg (1031 hPa)
Pressure tendency: 0.01 inches (0.5 hPa) higher than three hours ago
ob: KSLC 050554Z 14004KT 10SM CLR M04/M08 A3046 RMK AO2 SLP334 T10391083 10000 21039 53005
cycle: 6

Station Type Date Time Source
KSLC TAF 2020/12/05 06:36 UTC NOAA

TAF KSLC 050533Z 0506/0612 15004KT P6SM SKC
FM051800 30005KT P6SM SKC
FM060400 16005KT P6SM SKC

Example: see airport list